CW8822 Caguas PR US current weather conditions

sailwx.info

Wind from 194 at 0 knots gusting 2

Air temperature 22.8° C
Dewpoint 21.0° C

Last reported at 2015-May-26 06:47 UTC.
Time now 2015-May-26 07:41 UTC

Location: N 18°12' W 066°01'.
View on Google Maps.

See reports from other nearby stations

  
Tides and Currents Weather Stations Pressure Air Temp Water Temp Dewpoint Dewpoint Depression Visibility Wind Speed Wind Dir Waves Ship Positions
date/time (UTC)wind fromknots sea level pressurealtimeterstation pressurevisibilityair tempwater tempwave heightnotes
2015-May-26 06:47 194 0 gusting 2 22.8
2015-May-26 06:31 194 22.8
2015-May-26 06:16 194 22.8
2015-May-26 06:00 194 2 gusting 4 22.8
2015-May-26 05:46 194 3 gusting 6 22.8
2015-May-26 05:32 140 1 gusting 3 22.8
2015-May-26 05:15 139 22.8
2015-May-26 05:00 139 22.8
2015-May-26 04:45 139 22.8
2015-May-26 04:31 139 22.8
2015-May-26 04:15 139 23.3
2015-May-26 04:00 139 23.3
2015-May-26 03:46 139 23.3
2015-May-26 03:30 123 0 gusting 6 23.3
2015-May-26 03:15 044 23.9
2015-May-26 03:00 045 23.9
2015-May-26 02:45 044 23.9
2015-May-26 02:29 045 23.9
2015-May-26 02:15 045 23.9
2015-May-26 01:59 044 24.4
2015-May-26 01:44 045 24.4
2015-May-26 01:30 045 24.4
2015-May-26 01:15 045 24.4
2015-May-26 01:00 044 24.4
2015-May-26 00:45 045 24.4
2015-May-26 00:29 045 24.4
2015-May-26 00:15 045 24.4
2015-May-26 00:00 045 24.4
2015-May-25 23:44 045 24.4
2015-May-25 23:29 045 24.4
2015-May-25 23:13 045 0 gusting 3 24.4
2015-May-25 22:59 044 25.0
2015-May-25 22:44 045 0 gusting 6 25.0
2015-May-25 22:28 042 1 gusting 6 25.0
2015-May-25 22:14 032 1 gusting 10 26.7
2015-May-25 21:59 087 1 gusting 7 27.2
2015-May-25 21:43 071 1 gusting 6 27.8
2015-May-25 21:29 019 3 gusting 7 27.8
2015-May-25 21:13 042 0 gusting 9 28.3
2015-May-25 20:58 116 1 gusting 5 28.3
2015-May-25 20:44 096 3 gusting 8 28.9
2015-May-25 20:28 131 3 gusting 9 29.4
2015-May-25 20:14 069 1 gusting 8 30.0
2015-May-25 19:57 101 2 gusting 9 30.0
2015-May-25 19:43 116 3 gusting 8 29.4
2015-May-25 19:28 069 4 gusting 10 30.0
2015-May-25 19:12 082 4 gusting 13 30.6
2015-May-25 18:58 107 2 gusting 7 31.1
2015-May-25 18:43 097 3 gusting 8 30.6
2015-May-25 18:27 181 3 gusting 7 31.1
2015-May-25 18:13 165 1 gusting 12 30.6
2015-May-25 17:57 038 3 gusting 12 30.0
2015-May-25 17:43 084 2 gusting 8 30.6
2015-May-25 17:27 086 4 gusting 9 30.0
2015-May-25 17:12 085 3 gusting 7 31.1
2015-May-25 16:57 054 1 gusting 9 29.4
2015-May-25 16:41 078 4 gusting 11 29.4
2015-May-25 16:27 096 2 gusting 10 30.0
2015-May-25 16:12 122 1 gusting 9 30.0
2015-May-25 15:56 104 3 gusting 11 30.0
2015-May-25 15:42 055 2 gusting 8 29.4
2015-May-25 15:26 072 1 gusting 8 29.4
2015-May-25 15:12 167 5 gusting 11 30.0
2015-May-25 14:57 151 3 gusting 7 29.4
2015-May-25 14:41 063 0 gusting 7 30.0
2015-May-25 14:27 044 2 gusting 10 28.9
2015-May-25 14:11 098 3 gusting 11 27.8
2015-May-25 13:56 082 27.2
2015-May-25 13:42 096 0 gusting 6 28.3
2015-May-25 13:26 092 3 gusting 10 27.2
2015-May-25 13:11 051 2 gusting 7 27.2
2015-May-25 12:55 049 3 gusting 9 27.2
2015-May-25 12:41 026 2 gusting 7 27.2
2015-May-25 12:25 042 4 gusting 9 26.7
2015-May-25 12:10 051 0 gusting 4 26.1
2015-May-25 11:55 039 25.6
2015-May-25 11:40 039 25.0
2015-May-25 11:25 039 23.9
2015-May-25 11:10 040 22.8
2015-May-25 10:54 039 22.8
2015-May-25 10:40 039 22.2
2015-May-25 10:24 039 22.2
2015-May-25 10:10 039 22.2
2015-May-25 09:54 017 22.2
2015-May-25 09:40 069 22.2
2015-May-25 09:24 069 22.2
2015-May-25 09:09 069 22.2
2015-May-25 08:55 069 22.8
2015-May-25 08:39 069 22.8
2015-May-25 08:24 069 22.8
2015-May-25 08:10 069 22.8
2015-May-25 07:54 069 22.8
2015-May-25 07:39 069 22.8
2015-May-25 07:23 069 22.8
2015-May-25 07:09 069 23.3
2015-May-25 06:53 069 23.3
2015-May-25 06:38 069 23.3
2015-May-25 06:23 069 23.3
2015-May-25 06:08 069 23.3
2015-May-25 05:52 069 23.3
2015-May-25 05:38 069 23.9
2015-May-25 05:24 068 23.9
2015-May-25 05:08 069 23.9
2015-May-25 04:54 069 23.9
2015-May-25 04:38 068 23.9
2015-May-25 04:23 069 23.9
2015-May-25 04:07 069 23.9
2015-May-25 03:53 068 23.9
2015-May-25 03:37 069 23.9
2015-May-25 03:23 069 23.9
2015-May-25 03:07 069 23.9
2015-May-25 02:52 069 24.4
2015-May-25 02:38 069 24.4
2015-May-25 02:21 069 24.4
2015-May-25 02:07 069 0 gusting 2 24.4
2015-May-25 01:52 069 24.4
2015-May-25 01:38 069 24.4
2015-May-25 01:22 069 25.0
2015-May-25 01:07 069 25.0
2015-May-25 00:52 069 25.0
2015-May-25 00:36 069 25.6
2015-May-25 00:21 070 25.6
2015-May-25 00:07 088 0 gusting 4 25.6
2015-May-24 23:51 089 25.6
2015-May-24 23:36 086 25.6
2015-May-24 23:22 095 2 gusting 6 25.6
2015-May-24 23:06 090 26.1
2015-May-24 22:51 103 0 gusting 5 26.1
2015-May-24 22:37 109 0 gusting 6 26.7
2015-May-24 22:21 109 2 gusting 8 26.7
2015-May-24 22:06 090 3 gusting 8 27.2
2015-May-24 21:50 084 1 gusting 7 27.2
2015-May-24 21:36 069 2 gusting 9 27.8
2015-May-24 21:21 090 2 gusting 11 28.3
2015-May-24 21:06 084 3 gusting 7 28.3
2015-May-24 20:50 092 0 gusting 8 29.4
2015-May-24 20:36 109 1 gusting 11 28.9
2015-May-24 20:21 093 4 gusting 12 28.9
2015-May-24 20:05 101 2 gusting 11 29.4
2015-May-24 19:51 049 2 gusting 12 30.6
2015-May-24 19:35 072 1 gusting 9 30.6
2015-May-24 19:20 057 4 gusting 10 31.1
2015-May-24 19:06 083 2 gusting 11 31.1
2015-May-24 18:50 090 4 gusting 8 30.6
2015-May-24 18:36 171 4 gusting 10 30.6
2015-May-24 18:20 121 1 gusting 9 31.1
2015-May-24 18:05 091 2 gusting 12 30.6
2015-May-24 17:49 128 2 gusting 8 30.6
2015-May-24 17:35 115 4 gusting 12 30.6
2015-May-24 17:20 116 4 gusting 11 31.1
2015-May-24 17:04 088 4 gusting 8 30.6
2015-May-24 16:49 091 5 gusting 11 31.1
2015-May-24 16:34 083 3 gusting 12 30.0
2015-May-24 16:19 089 2 gusting 7 31.1
2015-May-24 16:04 090 2 gusting 9 30.6
2015-May-24 15:48 123 3 gusting 12 30.0
2015-May-24 15:33 073 2 gusting 7 30.0
2015-May-24 15:18 066 1 gusting 13 29.4
2015-May-24 15:03 014 4 gusting 10 30.0
2015-May-24 14:48 151 1 gusting 14 29.4
2015-May-24 14:33 075 3 gusting 10 28.9
2015-May-24 14:18 066 2 gusting 10 28.3
2015-May-24 14:03 105 2 gusting 8 28.3
2015-May-24 13:48 042 3 gusting 10 28.3
2015-May-24 13:33 044 5 gusting 13 28.3
2015-May-24 13:18 052 0 gusting 8 27.8
2015-May-24 13:03 088 2 gusting 7 27.8
2015-May-24 12:49 048 0 gusting 8 27.2
2015-May-24 12:33 065 0 gusting 8 26.7
2015-May-24 12:18 097 2 gusting 6 26.7
2015-May-24 12:03 058 2 gusting 6 25.6
2015-May-24 11:48 059 0 gusting 3 25.0
2015-May-24 11:33 059 1 gusting 4 23.9
2015-May-24 11:18 059 23.3
2015-May-24 11:03 059 23.3
2015-May-24 10:48 059 22.8
2015-May-24 10:33 059 22.2
2015-May-24 10:18 075 21.7
2015-May-24 10:02 077 21.7
2015-May-24 09:47 077 0 gusting 1 22.2
2015-May-24 09:32 077 22.2
2015-May-24 09:17 077 22.2
2015-May-24 09:02 077 22.2
2015-May-24 08:47 077 22.2
2015-May-24 08:32 077 22.2
2015-May-24 08:17 077 22.2
2015-May-24 08:02 077 22.8
2015-May-24 07:47 077 22.8
2015-May-24 07:32 077 22.8
2015-May-24 07:17 077 22.8
2015-May-24 07:02 077 22.8